Aviation Digital Data Service (ADDS)

Output produced by METARs form (0620 UTC 19 February 2019)
found at http://www.aviationweather.gov/metar/data/
 
METAR text: RJAW 190600Z 09013KT 9999 BKN020 22/16 Q1022 RMK 5CU020 A3020
Conditions at: RJAW (IWOJIMA (JMSDF) , JP) observed 0600 UTC 19 February 2019
Temperature: 22.0°C (72°F)
Dewpoint: 16.0°C (61°F) [RH = 69%]
Pressure (altimeter): 30.18 inches Hg (1022.0 mb)
Winds: from the E (90 degrees) at 15 MPH (13 knots; 6.7 m/s)
Visibility: 6 or more miles (10+ km)
Ceiling: 2000 feet AGL
Clouds: broken clouds at 2000 feet AGL
Weather: no significant weather observed at this time

METAR text: RJAW 190550Z 09012KT 9999 BKN020 22/16 Q1022 RMK 5CU020 A3020
Conditions at: RJAW (IWOJIMA (JMSDF) , JP) observed 0550 UTC 19 February 2019
Temperature: 22.0°C (72°F)
Dewpoint: 16.0°C (61°F) [RH = 69%]
Pressure (altimeter): 30.18 inches Hg (1022.0 mb)
Winds: from the E (90 degrees) at 14 MPH (12 knots; 6.2 m/s)
Visibility: 6 or more miles (10+ km)
Ceiling: 2000 feet AGL
Clouds: broken clouds at 2000 feet AGL
Weather: no significant weather observed at this time

METAR text: RJAW 190500Z 08013KT 050V110 9999 SCT020 22/16 Q1022 RMK 4CU020 A3020
Conditions at: RJAW (IWOJIMA (JMSDF) , JP) observed 0500 UTC 19 February 2019
Temperature: 22.0°C (72°F)
Dewpoint: 16.0°C (61°F) [RH = 69%]
Pressure (altimeter): 30.18 inches Hg (1022.0 mb)
Winds: from the E (80 degrees) at 15 MPH (13 knots; 6.7 m/s)
Visibility: 6 or more miles (10+ km)
Ceiling: at least 12,000 feet AGL
Clouds: scattered clouds at 2000 feet AGL
Weather: no significant weather observed at this time

METAR text: RJAW 190400Z 07014KT 9999 SCT020 23/16 Q1023 RMK 4CU020 A3022
Conditions at: RJAW (IWOJIMA (JMSDF) , JP) observed 0400 UTC 19 February 2019
Temperature: 23.0°C (73°F)
Dewpoint: 16.0°C (61°F) [RH = 65%]
Pressure (altimeter): 30.21 inches Hg (1023.0 mb)
Winds: from the ENE (70 degrees) at 16 MPH (14 knots; 7.2 m/s)
Visibility: 6 or more miles (10+ km)
Ceiling: at least 12,000 feet AGL
Clouds: scattered clouds at 2000 feet AGL
Weather: no significant weather observed at this time

METAR text: RJAW 190300Z 08016KT 9999 SCT020 23/16 Q1024 RMK 4CU020 A3024
Conditions at: RJAW (IWOJIMA (JMSDF) , JP) observed 0300 UTC 19 February 2019
Temperature: 23.0°C (73°F)
Dewpoint: 16.0°C (61°F) [RH = 65%]
Pressure (altimeter): 30.24 inches Hg (1024.0 mb)
Winds: from the E (80 degrees) at 18 MPH (16 knots; 8.2 m/s)
Visibility: 6 or more miles (10+ km)
Ceiling: at least 12,000 feet AGL
Clouds: scattered clouds at 2000 feet AGL
Weather: no significant weather observed at this time

METAR text: RJAW 190250Z 07015KT 9999 SCT020 23/16 Q1024 RMK 4CU020 A3024
Conditions at: RJAW (IWOJIMA (JMSDF) , JP) observed 0250 UTC 19 February 2019
Temperature: 23.0°C (73°F)
Dewpoint: 16.0°C (61°F) [RH = 65%]
Pressure (altimeter): 30.24 inches Hg (1024.0 mb)
Winds: from the ENE (70 degrees) at 17 MPH (15 knots; 7.7 m/s)
Visibility: 6 or more miles (10+ km)
Ceiling: at least 12,000 feet AGL
Clouds: scattered clouds at 2000 feet AGL
Weather: no significant weather observed at this time

METAR text: RJAW 190200Z 09016KT 9999 BKN020 BKN230 22/16 Q1024 RMK 5CU020 A3026
Conditions at: RJAW (IWOJIMA (JMSDF) , JP) observed 0200 UTC 19 February 2019
Temperature: 22.0°C (72°F)
Dewpoint: 16.0°C (61°F) [RH = 69%]
Pressure (altimeter): 30.24 inches Hg (1024.0 mb)
Winds: from the E (90 degrees) at 18 MPH (16 knots; 8.2 m/s)
Visibility: 6 or more miles (10+ km)
Ceiling: 2000 feet AGL
Clouds: broken clouds at 2000 feet AGL
broken clouds at 23000 feet AGL
Weather: no significant weather observed at this time

METAR text: RJAW 190100Z 08015KT 9999 BKN020 22/16 Q1025 RMK 6CU020 A3028
Conditions at: RJAW (IWOJIMA (JMSDF) , JP) observed 0100 UTC 19 February 2019
Temperature: 22.0°C (72°F)
Dewpoint: 16.0°C (61°F) [RH = 69%]
Pressure (altimeter): 30.27 inches Hg (1025.0 mb)
Winds: from the E (80 degrees) at 17 MPH (15 knots; 7.7 m/s)
Visibility: 6 or more miles (10+ km)
Ceiling: 2000 feet AGL
Clouds: broken clouds at 2000 feet AGL
Weather: no significant weather observed at this time

METAR text: RJAW 190000Z 08015KT 9999 BKN020 22/16 Q1025 RMK 6CU020 A3028
Conditions at: RJAW (IWOJIMA (JMSDF) , JP) observed 0000 UTC 19 February 2019
Temperature: 22.0°C (72°F)
Dewpoint: 16.0°C (61°F) [RH = 69%]
Pressure (altimeter): 30.27 inches Hg (1025.0 mb)
Winds: from the E (80 degrees) at 17 MPH (15 knots; 7.7 m/s)
Visibility: 6 or more miles (10+ km)
Ceiling: 2000 feet AGL
Clouds: broken clouds at 2000 feet AGL
Weather: no significant weather observed at this time

METAR text: RJAW 182316Z 09017KT 9999 BKN020 21/16 Q1025 RMK 5CU020 A3027
Conditions at: RJAW (IWOJIMA (JMSDF) , JP) observed 2316 UTC 18 February 2019
Temperature: 21.0°C (70°F)
Dewpoint: 16.0°C (61°F) [RH = 73%]
Pressure (altimeter): 30.27 inches Hg (1025.0 mb)
Winds: from the E (90 degrees) at 20 MPH (17 knots; 8.7 m/s)
Visibility: 6 or more miles (10+ km)
Ceiling: 2000 feet AGL
Clouds: broken clouds at 2000 feet AGL
Weather: no significant weather observed at this time

METAR text: RJAW 182300Z 08016KT 9999 SCT020 21/16 Q1025 RMK 3CU020 A3027
Conditions at: RJAW (IWOJIMA (JMSDF) , JP) observed 2300 UTC 18 February 2019
Temperature: 21.0°C (70°F)
Dewpoint: 16.0°C (61°F) [RH = 73%]
Pressure (altimeter): 30.27 inches Hg (1025.0 mb)
Winds: from the E (80 degrees) at 18 MPH (16 knots; 8.2 m/s)
Visibility: 6 or more miles (10+ km)
Ceiling: at least 12,000 feet AGL
Clouds: scattered clouds at 2000 feet AGL
Weather: no significant weather observed at this time

METAR text: RJAW 182200Z 09014KT 9999 FEW020 20/16 Q1024 RMK 2CU020 A3026
Conditions at: RJAW (IWOJIMA (JMSDF) , JP) observed 2200 UTC 18 February 2019
Temperature: 20.0°C (68°F)
Dewpoint: 16.0°C (61°F) [RH = 78%]
Pressure (altimeter): 30.24 inches Hg (1024.0 mb)
Winds: from the E (90 degrees) at 16 MPH (14 knots; 7.2 m/s)
Visibility: 6 or more miles (10+ km)
Ceiling: at least 12,000 feet AGL
Clouds: few clouds at 2000 feet AGL
Weather: no significant weather observed at this time

METAR text: RJAW 182100Z 08014KT 9999 SCT020 SCT100 20/16 Q1024 RMK 3CU020 3AC100 A3024
Conditions at: RJAW (IWOJIMA (JMSDF) , JP) observed 2100 UTC 18 February 2019
Temperature: 20.0°C (68°F)
Dewpoint: 16.0°C (61°F) [RH = 78%]
Pressure (altimeter): 30.24 inches Hg (1024.0 mb)
Winds: from the E (80 degrees) at 16 MPH (14 knots; 7.2 m/s)
Visibility: 6 or more miles (10+ km)
Ceiling: at least 12,000 feet AGL
Clouds: scattered clouds at 2000 feet AGL
scattered clouds at 10000 feet AGL
Weather: no significant weather observed at this time

METAR text: RJAW 182000Z 07015KT 9999 FEW020 BKN100 20/16 Q1023 RMK 2CU020 5AC100 A3023
Conditions at: RJAW (IWOJIMA (JMSDF) , JP) observed 2000 UTC 18 February 2019
Temperature: 20.0°C (68°F)
Dewpoint: 16.0°C (61°F) [RH = 78%]
Pressure (altimeter): 30.21 inches Hg (1023.0 mb)
Winds: from the ENE (70 degrees) at 17 MPH (15 knots; 7.7 m/s)
Visibility: 6 or more miles (10+ km)
Ceiling: 10000 feet AGL
Clouds: few clouds at 2000 feet AGL
broken clouds at 10000 feet AGL
Weather: no significant weather observed at this time

METAR text: RJAW 181800Z 08013KT 9999 BKN020 20/16 Q1023 RMK 5CU020 A3021
Conditions at: RJAW (IWOJIMA (JMSDF) , JP) observed 1800 UTC 18 February 2019
Temperature: 20.0°C (68°F)
Dewpoint: 16.0°C (61°F) [RH = 78%]
Pressure (altimeter): 30.21 inches Hg (1023.0 mb)
Winds: from the E (80 degrees) at 15 MPH (13 knots; 6.7 m/s)
Visibility: 6 or more miles (10+ km)
Ceiling: 2000 feet AGL
Clouds: broken clouds at 2000 feet AGL
Weather: no significant weather observed at this time

METAR text: RJAW 181500Z 06013KT 9999 -SHRA BKN020 20/17 Q1024 RMK 7CU020 A3024
Conditions at: RJAW (IWOJIMA (JMSDF) , JP) observed 1500 UTC 18 February 2019
Temperature: 20.0°C (68°F)
Dewpoint: 17.0°C (63°F) [RH = 83%]
Pressure (altimeter): 30.24 inches Hg (1024.0 mb)
Winds: from the ENE (60 degrees) at 15 MPH (13 knots; 6.7 m/s)
Visibility: 6 or more miles (10+ km)
Ceiling: 2000 feet AGL
Clouds: broken clouds at 2000 feet AGL
Weather: -SHRA  (light rain showers)

METAR text: RJAW 181200Z 04006KT 9999 FEW020 21/15 Q1024 RMK 1CU020 A3024
Conditions at: RJAW (IWOJIMA (JMSDF) , JP) observed 1200 UTC 18 February 2019
Temperature: 21.0°C (70°F)
Dewpoint: 15.0°C (59°F) [RH = 69%]
Pressure (altimeter): 30.24 inches Hg (1024.0 mb)
Winds: from the NE (40 degrees) at 7 MPH (6 knots; 3.1 m/s)
Visibility: 6 or more miles (10+ km)
Ceiling: at least 12,000 feet AGL
Clouds: few clouds at 2000 feet AGL
Weather: no significant weather observed at this time

METAR text: RJAW 180900Z 02009KT 9999 FEW020 SCT230 21/16 Q1022 RMK 2CU020 A3019
Conditions at: RJAW (IWOJIMA (JMSDF) , JP) observed 0900 UTC 18 February 2019
Temperature: 21.0°C (70°F)
Dewpoint: 16.0°C (61°F) [RH = 73%]
Pressure (altimeter): 30.18 inches Hg (1022.0 mb)
Winds: from the NNE (20 degrees) at 10 MPH (9 knots; 4.6 m/s)
Visibility: 6 or more miles (10+ km)
Ceiling: at least 12,000 feet AGL
Clouds: few clouds at 2000 feet AGL
scattered clouds at 23000 feet AGL
Weather: no significant weather observed at this time

METAR text: RJAW 180800Z 36008KT 9999 FEW020 SCT230 22/16 Q1022 RMK 2CU020 A3018
Conditions at: RJAW (IWOJIMA (JMSDF) , JP) observed 0800 UTC 18 February 2019
Temperature: 22.0°C (72°F)
Dewpoint: 16.0°C (61°F) [RH = 69%]
Pressure (altimeter): 30.18 inches Hg (1022.0 mb)
Winds: from the N (360 degrees) at 9 MPH (8 knots; 4.1 m/s)
Visibility: 6 or more miles (10+ km)
Ceiling: at least 12,000 feet AGL
Clouds: few clouds at 2000 feet AGL
scattered clouds at 23000 feet AGL
Weather: no significant weather observed at this time

METAR text: RJAW 180700Z 35009KT 330V030 9999 FEW020 SCT230 23/15 Q1021 RMK 1CU020 A3016
Conditions at: RJAW (IWOJIMA (JMSDF) , JP) observed 0700 UTC 18 February 2019
Temperature: 23.0°C (73°F)
Dewpoint: 15.0°C (59°F) [RH = 61%]
Pressure (altimeter): 30.15 inches Hg (1021.0 mb)
Winds: from the N (350 degrees) at 10 MPH (9 knots; 4.6 m/s)
Visibility: 6 or more miles (10+ km)
Ceiling: at least 12,000 feet AGL
Clouds: few clouds at 2000 feet AGL
scattered clouds at 23000 feet AGL
Weather: no significant weather observed at this time

METAR text: RJAW 180600Z 36010KT 330V030 9999 FEW020 24/16 Q1021 RMK 2CU020 A3015
Conditions at: RJAW (IWOJIMA (JMSDF) , JP) observed 0600 UTC 18 February 2019
Temperature: 24.0°C (75°F)
Dewpoint: 16.0°C (61°F) [RH = 61%]
Pressure (altimeter): 30.15 inches Hg (1021.0 mb)
Winds: from the N (360 degrees) at 12 MPH (10 knots; 5.1 m/s)
Visibility: 6 or more miles (10+ km)
Ceiling: at least 12,000 feet AGL
Clouds: few clouds at 2000 feet AGL
Weather: no significant weather observed at this time

METAR text: RJAW 180500Z 35012KT 9999 FEW020 24/16 Q1021 RMK 2CU020 A3015
Conditions at: RJAW (IWOJIMA (JMSDF) , JP) observed 0500 UTC 18 February 2019
Temperature: 24.0°C (75°F)
Dewpoint: 16.0°C (61°F) [RH = 61%]
Pressure (altimeter): 30.15 inches Hg (1021.0 mb)
Winds: from the N (350 degrees) at 14 MPH (12 knots; 6.2 m/s)
Visibility: 6 or more miles (10+ km)
Ceiling: at least 12,000 feet AGL
Clouds: few clouds at 2000 feet AGL
Weather: no significant weather observed at this time

METAR text: RJAW 180400Z 35009KT 310V030 9999 FEW020 SCT060 24/16 Q1021 RMK 1CU020 3SC060 A3015
Conditions at: RJAW (IWOJIMA (JMSDF) , JP) observed 0400 UTC 18 February 2019
Temperature: 24.0°C (75°F)
Dewpoint: 16.0°C (61°F) [RH = 61%]
Pressure (altimeter): 30.15 inches Hg (1021.0 mb)
Winds: from the N (350 degrees) at 10 MPH (9 knots; 4.6 m/s)
Visibility: 6 or more miles (10+ km)
Ceiling: at least 12,000 feet AGL
Clouds: few clouds at 2000 feet AGL
scattered clouds at 6000 feet AGL
Weather: no significant weather observed at this time

METAR text: RJAW 180300Z 36009KT 300V050 9999 FEW020 BKN060 23/16 Q1021 RMK 1CU020 7SC060 A3017
Conditions at: RJAW (IWOJIMA (JMSDF) , JP) observed 0300 UTC 18 February 2019
Temperature: 23.0°C (73°F)
Dewpoint: 16.0°C (61°F) [RH = 65%]
Pressure (altimeter): 30.15 inches Hg (1021.0 mb)
Winds: from the N (360 degrees) at 10 MPH (9 knots; 4.6 m/s)
Visibility: 6 or more miles (10+ km)
Ceiling: 6000 feet AGL
Clouds: few clouds at 2000 feet AGL
broken clouds at 6000 feet AGL
Weather: no significant weather observed at this time

METAR text: RJAW 180200Z 35008KT 300V020 9999 FEW020 BKN050 23/16 Q1022 RMK 2CU020 7SC050 A3019
Conditions at: RJAW (IWOJIMA (JMSDF) , JP) observed 0200 UTC 18 February 2019
Temperature: 23.0°C (73°F)
Dewpoint: 16.0°C (61°F) [RH = 65%]
Pressure (altimeter): 30.18 inches Hg (1022.0 mb)
Winds: from the N (350 degrees) at 9 MPH (8 knots; 4.1 m/s)
Visibility: 6 or more miles (10+ km)
Ceiling: 5000 feet AGL
Clouds: few clouds at 2000 feet AGL
broken clouds at 5000 feet AGL
Weather: no significant weather observed at this time

METAR text: RJAW 180124Z 36008KT 320V040 9999 FEW020 BKN050 23/16 Q1022 RMK 2CU020 7SC050 A3020
Conditions at: RJAW (IWOJIMA (JMSDF) , JP) observed 0124 UTC 18 February 2019
Temperature: 23.0°C (73°F)
Dewpoint: 16.0°C (61°F) [RH = 65%]
Pressure (altimeter): 30.18 inches Hg (1022.0 mb)
Winds: from the N (360 degrees) at 9 MPH (8 knots; 4.1 m/s)
Visibility: 6 or more miles (10+ km)
Ceiling: 5000 feet AGL
Clouds: few clouds at 2000 feet AGL
broken clouds at 5000 feet AGL
Weather: no significant weather observed at this time

METAR text: RJAW 180100Z 01009KT 9999 SCT015 BKN040 22/16 Q1023 RMK 3CU015 7SC040 A3021
Conditions at: RJAW (IWOJIMA (JMSDF) , JP) observed 0100 UTC 18 February 2019
Temperature: 22.0°C (72°F)
Dewpoint: 16.0°C (61°F) [RH = 69%]
Pressure (altimeter): 30.21 inches Hg (1023.0 mb)
Winds: from the N (10 degrees) at 10 MPH (9 knots; 4.6 m/s)
Visibility: 6 or more miles (10+ km)
Ceiling: 4000 feet AGL
Clouds: scattered clouds at 1500 feet AGL
broken clouds at 4000 feet AGL
Weather: no significant weather observed at this time

METAR text: RJAW 180000Z 34008KT 320V020 9999 SCT015 BKN040 22/16 Q1022 RMK 3CU015 7SC040 A3021
Conditions at: RJAW (IWOJIMA (JMSDF) , JP) observed 0000 UTC 18 February 2019
Temperature: 22.0°C (72°F)
Dewpoint: 16.0°C (61°F) [RH = 69%]
Pressure (altimeter): 30.18 inches Hg (1022.0 mb)
Winds: from the NNW (340 degrees) at 9 MPH (8 knots; 4.1 m/s)
Visibility: 6 or more miles (10+ km)
Ceiling: 4000 feet AGL
Clouds: scattered clouds at 1500 feet AGL
broken clouds at 4000 feet AGL
Weather: no significant weather observed at this time

METAR text: RJAW 172300Z 36008KT 320V020 9999 FEW020 BKN040 22/16 Q1022 RMK 2CU020 7SC040 A3019
Conditions at: RJAW (IWOJIMA (JMSDF) , JP) observed 2300 UTC 17 February 2019
Temperature: 22.0°C (72°F)
Dewpoint: 16.0°C (61°F) [RH = 69%]
Pressure (altimeter): 30.18 inches Hg (1022.0 mb)
Winds: from the N (360 degrees) at 9 MPH (8 knots; 4.1 m/s)
Visibility: 6 or more miles (10+ km)
Ceiling: 4000 feet AGL
Clouds: few clouds at 2000 feet AGL
broken clouds at 4000 feet AGL
Weather: no significant weather observed at this time

METAR text: RJAW 172225Z 35009KT 9999 FEW020 BKN040 22/16 Q1022 RMK 2CU020 5SC040 A3018
Conditions at: RJAW (IWOJIMA (JMSDF) , JP) observed 2225 UTC 17 February 2019
Temperature: 22.0°C (72°F)
Dewpoint: 16.0°C (61°F) [RH = 69%]
Pressure (altimeter): 30.18 inches Hg (1022.0 mb)
Winds: from the N (350 degrees) at 10 MPH (9 knots; 4.6 m/s)
Visibility: 6 or more miles (10+ km)
Ceiling: 4000 feet AGL
Clouds: few clouds at 2000 feet AGL
broken clouds at 4000 feet AGL
Weather: no significant weather observed at this time

METAR text: RJAW 172200Z 35008KT 9999 SCT020 21/16 Q1021 RMK 3CU020 A3017
Conditions at: RJAW (IWOJIMA (JMSDF) , JP) observed 2200 UTC 17 February 2019
Temperature: 21.0°C (70°F)
Dewpoint: 16.0°C (61°F) [RH = 73%]
Pressure (altimeter): 30.15 inches Hg (1021.0 mb)
Winds: from the N (350 degrees) at 9 MPH (8 knots; 4.1 m/s)
Visibility: 6 or more miles (10+ km)
Ceiling: at least 12,000 feet AGL
Clouds: scattered clouds at 2000 feet AGL
Weather: no significant weather observed at this time

METAR text: RJAW 172100Z 36007KT 9999 FEW020 SCT040 21/17 Q1020 RMK 1CU020 4SC040 A3013
Conditions at: RJAW (IWOJIMA (JMSDF) , JP) observed 2100 UTC 17 February 2019
Temperature: 21.0°C (70°F)
Dewpoint: 17.0°C (63°F) [RH = 78%]
Pressure (altimeter): 30.12 inches Hg (1020.0 mb)
Winds: from the N (360 degrees) at 8 MPH (7 knots; 3.6 m/s)
Visibility: 6 or more miles (10+ km)
Ceiling: at least 12,000 feet AGL
Clouds: few clouds at 2000 feet AGL
scattered clouds at 4000 feet AGL
Weather: no significant weather observed at this time

METAR text: RJAW 172050Z 36007KT 9999 FEW020 SCT040 21/17 Q1020 RMK 1CU020 4SC040 A3012
Conditions at: RJAW (IWOJIMA (JMSDF) , JP) observed 2050 UTC 17 February 2019
Temperature: 21.0°C (70°F)
Dewpoint: 17.0°C (63°F) [RH = 78%]
Pressure (altimeter): 30.12 inches Hg (1020.0 mb)
Winds: from the N (360 degrees) at 8 MPH (7 knots; 3.6 m/s)
Visibility: 6 or more miles (10+ km)
Ceiling: at least 12,000 feet AGL
Clouds: few clouds at 2000 feet AGL
scattered clouds at 4000 feet AGL
Weather: no significant weather observed at this time

METAR text: RJAW 172033Z 35009KT 9999 FEW020 BKN040 21/17 Q1019 RMK 2CU020 5SC040 A3012
Conditions at: RJAW (IWOJIMA (JMSDF) , JP) observed 2033 UTC 17 February 2019
Temperature: 21.0°C (70°F)
Dewpoint: 17.0°C (63°F) [RH = 78%]
Pressure (altimeter): 30.09 inches Hg (1019.0 mb)
Winds: from the N (350 degrees) at 10 MPH (9 knots; 4.6 m/s)
Visibility: 6 or more miles (10+ km)
Ceiling: 4000 feet AGL
Clouds: few clouds at 2000 feet AGL
broken clouds at 4000 feet AGL
Weather: no significant weather observed at this time

METAR text: RJAW 172000Z 35009KT 9999 SCT020 21/17 Q1019 RMK 4CU020 A3010
Conditions at: RJAW (IWOJIMA (JMSDF) , JP) observed 2000 UTC 17 February 2019
Temperature: 21.0°C (70°F)
Dewpoint: 17.0°C (63°F) [RH = 78%]
Pressure (altimeter): 30.09 inches Hg (1019.0 mb)
Winds: from the N (350 degrees) at 10 MPH (9 knots; 4.6 m/s)
Visibility: 6 or more miles (10+ km)
Ceiling: at least 12,000 feet AGL
Clouds: scattered clouds at 2000 feet AGL
Weather: no significant weather observed at this time